createdAt,value
2023-05-02T00:00:44.763Z,13.40
2023-05-02T00:03:12.911Z,13.40
2023-05-02T00:05:41.840Z,13.40
2023-05-02T00:08:10.076Z,13.20
2023-05-02T00:10:37.871Z,13.30
2023-05-02T00:13:05.651Z,13.30
2023-05-02T00:15:33.418Z,13.00
2023-05-02T00:18:01.163Z,13.10
2023-05-02T00:20:29.078Z,13.00
2023-05-02T00:22:56.974Z,13.00
2023-05-02T00:25:24.811Z,13.20
2023-05-02T00:27:52.527Z,13.00
2023-05-02T00:30:20.542Z,13.00
2023-05-02T00:32:48.694Z,13.20
2023-05-02T00:35:16.607Z,12.90
2023-05-02T00:37:44.473Z,12.70
2023-05-02T00:40:14.984Z,12.80
2023-05-02T00:42:42.730Z,12.80
2023-05-02T00:45:11.668Z,12.80
2023-05-02T00:47:40.189Z,12.60
2023-05-02T00:50:09.735Z,12.70
2023-05-02T00:52:38.048Z,12.50
2023-05-02T00:57:56.405Z,12.70
2023-05-02T01:00:30.671Z,12.60
2023-05-02T01:03:08.885Z,12.50
2023-05-02T01:05:44.378Z,12.60
2023-05-02T01:08:20.142Z,12.60
2023-05-02T01:10:52.980Z,12.50
2023-05-02T01:13:23.992Z,12.60
2023-05-02T01:15:53.429Z,12.50
2023-05-02T01:18:24.263Z,12.50
2023-05-02T01:20:57.002Z,12.30
2023-05-02T01:26:17.565Z,12.40
2023-05-02T01:28:59.231Z,12.30
2023-05-02T01:31:28.570Z,12.20
2023-05-02T01:33:58.438Z,12.20
2023-05-02T01:39:18.846Z,12.40
2023-05-02T01:41:49.124Z,12.40
2023-05-02T01:47:09.488Z,12.20
2023-05-02T01:49:40.655Z,12.30
2023-05-02T01:52:11.135Z,12.10
2023-05-02T01:54:40.508Z,12.70
2023-05-02T01:57:11.293Z,12.20
2023-05-02T02:02:30.013Z,12.20
2023-05-02T02:07:48.214Z,12.30
2023-05-02T02:10:17.103Z,12.20
2023-05-02T02:12:51.995Z,12.40
2023-05-02T02:15:26.374Z,12.50
2023-05-02T02:18:00.014Z,12.30
2023-05-02T02:20:31.201Z,12.30
2023-05-02T02:23:02.858Z,12.30
2023-05-02T02:25:30.928Z,12.30
2023-05-02T02:27:59.114Z,12.40
2023-05-02T02:30:27.180Z,12.40
2023-05-02T02:32:55.027Z,12.40
2023-05-02T02:35:25.812Z,12.40
2023-05-02T02:38:02.712Z,12.40
2023-05-02T02:40:37.631Z,12.40
2023-05-02T02:43:12.342Z,12.40
2023-05-02T02:45:49.244Z,12.40
2023-05-02T02:48:27.327Z,12.60
2023-05-02T02:51:04.654Z,12.50
2023-05-02T02:53:44.961Z,12.50
2023-05-02T02:56:19.598Z,12.40
2023-05-02T02:58:55.060Z,9.70
2023-05-02T03:01:24.911Z,12.30
2023-05-02T03:06:42.759Z,12.30
2023-05-02T03:12:01.964Z,12.40
2023-05-02T03:14:29.959Z,12.20
2023-05-02T03:16:58.402Z,12.10
2023-05-02T03:19:26.692Z,12.60
2023-05-02T03:21:54.495Z,12.20
2023-05-02T03:24:22.398Z,12.30
2023-05-02T03:26:50.114Z,12.20
2023-05-02T03:29:17.881Z,12.30
2023-05-02T03:31:45.707Z,12.20
2023-05-02T03:34:13.515Z,12.30
2023-05-02T03:36:41.256Z,12.50
2023-05-02T03:39:09.043Z,12.10
2023-05-02T03:41:36.777Z,12.10
2023-05-02T03:44:05.348Z,12.10
2023-05-02T03:46:33.138Z,12.10
2023-05-02T03:49:00.945Z,12.10
2023-05-02T03:51:28.658Z,12.20
2023-05-02T03:53:56.574Z,12.10
2023-05-02T03:56:24.324Z,12.10
2023-05-02T03:58:52.147Z,12.20
2023-05-02T04:01:20.161Z,12.40
2023-05-02T04:03:47.974Z,12.10
2023-05-02T04:06:15.846Z,12.00
2023-05-02T04:08:43.729Z,12.10
2023-05-02T04:11:11.462Z,12.00
2023-05-02T04:13:39.196Z,11.90
2023-05-02T04:16:08.481Z,12.10
2023-05-02T04:18:36.206Z,12.20
2023-05-02T04:21:04.226Z,12.30
2023-05-02T04:23:32.534Z,12.20
2023-05-02T04:26:00.493Z,12.40
2023-05-02T04:28:28.409Z,12.20
2023-05-02T04:30:57.432Z,12.20
2023-05-02T04:33:25.268Z,12.40
2023-05-02T04:35:53.057Z,12.30
2023-05-02T04:38:20.955Z,12.30
2023-05-02T04:40:53.166Z,12.20
2023-05-02T04:43:23.145Z,12.10
2023-05-02T04:45:52.684Z,11.90
2023-05-02T04:48:20.996Z,12.00
2023-05-02T04:50:50.260Z,11.90
2023-05-02T04:53:18.000Z,11.80
2023-05-02T04:55:46.007Z,11.70
2023-05-02T04:58:13.800Z,11.80
2023-05-02T05:00:41.728Z,11.60
2023-05-02T05:03:09.566Z,11.80
2023-05-02T05:05:37.628Z,11.70
2023-05-02T05:08:06.070Z,11.70
2023-05-02T05:13:21.668Z,11.60
2023-05-02T05:15:49.510Z,11.60
2023-05-02T05:18:17.397Z,11.80
2023-05-02T05:20:45.099Z,11.90
2023-05-02T05:23:12.896Z,11.90
2023-05-02T05:25:41.532Z,12.00
2023-05-02T05:28:10.614Z,12.00
2023-05-02T05:30:38.405Z,11.90
2023-05-02T05:33:06.254Z,11.80
2023-05-02T05:35:34.049Z,11.80
2023-05-02T05:38:01.788Z,11.80
2023-05-02T05:40:29.926Z,11.90
2023-05-02T05:42:58.066Z,11.80
2023-05-02T05:45:26.149Z,11.70
2023-05-02T05:47:55.385Z,11.70
2023-05-02T05:50:23.171Z,11.80
2023-05-02T05:52:51.479Z,11.70
2023-05-02T05:55:19.518Z,12.10
2023-05-02T05:57:47.241Z,11.90
2023-05-02T06:00:16.853Z,11.90
2023-05-02T06:02:44.722Z,11.80
2023-05-02T06:05:12.784Z,11.80
2023-05-02T06:07:40.827Z,11.70
2023-05-02T06:10:10.239Z,11.60
2023-05-02T06:12:38.024Z,11.50
2023-05-02T06:15:07.779Z,11.40
2023-05-02T06:17:35.917Z,11.30
2023-05-02T06:20:04.246Z,11.30
2023-05-02T06:22:33.545Z,11.00
2023-05-02T06:25:01.320Z,11.10
2023-05-02T06:27:30.276Z,10.90
2023-05-02T06:29:59.751Z,10.70
2023-05-02T06:32:31.450Z,10.50
2023-05-02T06:34:59.235Z,10.50
2023-05-02T06:37:26.967Z,10.40
2023-05-02T06:39:54.735Z,10.40
2023-05-02T06:42:22.558Z,10.20
2023-05-02T06:44:51.676Z,10.20
2023-05-02T06:50:08.644Z,10.30
2023-05-02T06:52:36.985Z,10.40
2023-05-02T06:55:06.514Z,10.40
2023-05-02T06:57:34.251Z,10.40
2023-05-02T07:00:02.930Z,10.40
2023-05-02T07:02:30.945Z,10.30
2023-05-02T07:04:58.775Z,10.40
2023-05-02T07:07:26.762Z,10.50
2023-05-02T07:09:54.472Z,10.50
2023-05-02T07:12:22.429Z,10.50
2023-05-02T07:14:50.348Z,10.50
2023-05-02T07:17:18.149Z,10.50
2023-05-02T07:22:35.624Z,10.60
2023-05-02T07:25:04.069Z,10.50
2023-05-02T07:27:32.113Z,10.50
2023-05-02T07:30:01.151Z,10.40
2023-05-02T07:32:29.389Z,10.40
2023-05-02T07:34:57.222Z,10.10
2023-05-02T07:37:25.068Z,10.40
2023-05-02T07:39:52.808Z,10.20
2023-05-02T07:42:20.537Z,10.30
2023-05-02T07:44:48.350Z,10.50
2023-05-02T07:47:16.354Z,10.40
2023-05-02T07:49:44.202Z,10.50
2023-05-02T07:52:11.917Z,10.50
2023-05-02T07:54:39.727Z,10.40
2023-05-02T07:57:08.036Z,10.50
2023-05-02T07:59:35.871Z,10.80
2023-05-02T08:02:03.626Z,10.50
2023-05-02T08:04:31.418Z,10.30
2023-05-02T08:06:59.811Z,10.60
2023-05-02T08:09:27.594Z,10.70
2023-05-02T08:11:55.406Z,10.70
2023-05-02T08:14:23.164Z,10.70
2023-05-02T08:16:51.346Z,10.60
2023-05-02T08:19:19.525Z,10.60
2023-05-02T08:21:47.340Z,10.50
2023-05-02T08:24:15.166Z,10.60
2023-05-02T08:26:43.517Z,10.70
2023-05-02T08:29:11.887Z,10.70
2023-05-02T08:31:41.165Z,10.80
2023-05-02T08:34:09.196Z,10.80
2023-05-02T08:36:37.782Z,10.70
2023-05-02T08:39:07.360Z,10.80
2023-05-02T08:41:35.333Z,10.70
2023-05-02T08:44:03.719Z,10.70
2023-05-02T08:46:31.830Z,10.80
2023-05-02T08:48:59.840Z,11.00
2023-05-02T08:51:29.707Z,11.10
2023-05-02T08:53:58.244Z,11.00
2023-05-02T08:56:26.544Z,11.00
2023-05-02T08:58:54.352Z,11.00
2023-05-02T09:01:24.372Z,10.90
2023-05-02T09:03:53.980Z,11.00
2023-05-02T09:06:23.249Z,10.90
2023-05-02T09:08:52.581Z,11.10
2023-05-02T09:11:21.491Z,11.00
2023-05-02T09:13:51.496Z,11.10
2023-05-02T09:16:22.044Z,11.20
2023-05-02T09:18:51.822Z,11.20
2023-05-02T09:24:17.816Z,11.30
2023-05-02T09:26:58.534Z,11.20
2023-05-02T09:29:29.934Z,11.40
2023-05-02T09:31:57.832Z,11.10
2023-05-02T09:34:25.659Z,11.20
2023-05-02T09:36:53.890Z,11.40
2023-05-02T09:39:25.509Z,11.40
2023-05-02T09:41:54.684Z,11.30
2023-05-02T09:47:26.513Z,11.40
2023-05-02T09:49:54.291Z,11.60
2023-05-02T09:52:22.760Z,11.60
2023-05-02T09:54:51.959Z,11.70
2023-05-02T09:57:20.029Z,11.60
2023-05-02T09:59:55.364Z,11.70
2023-05-02T10:02:24.349Z,11.70
2023-05-02T10:04:53.266Z,12.40
2023-05-02T10:07:21.960Z,12.90
2023-05-02T10:09:53.938Z,13.10
2023-05-02T10:12:26.273Z,13.80
2023-05-02T10:15:00.026Z,13.90
2023-05-02T10:17:31.503Z,14.00
2023-05-02T10:22:47.414Z,14.70
2023-05-02T10:25:15.571Z,14.50
2023-05-02T10:27:43.704Z,14.00
2023-05-02T10:30:13.807Z,13.50
2023-05-02T10:32:43.111Z,12.90
2023-05-02T10:35:12.317Z,12.70
2023-05-02T10:37:44.385Z,12.50
2023-05-02T10:42:42.981Z,12.40
2023-05-02T10:45:13.869Z,12.30
2023-05-02T10:47:41.917Z,12.20
2023-05-02T10:50:10.722Z,12.30
2023-05-02T10:52:40.494Z,12.20
2023-05-02T10:55:22.254Z,12.20
2023-05-02T10:58:21.193Z,12.00
2023-05-02T11:00:49.182Z,12.00
2023-05-02T11:03:54.739Z,12.00
2023-05-02T11:06:22.945Z,12.00
2023-05-02T11:08:50.922Z,11.80
2023-05-02T11:14:49.371Z,12.50
2023-05-02T11:17:18.359Z,13.30
2023-05-02T11:20:32.632Z,13.60
2023-05-02T11:23:25.260Z,13.50
2023-05-02T11:25:55.510Z,14.10
2023-05-02T11:28:46.826Z,14.60
2023-05-02T11:31:57.508Z,14.50
2023-05-02T11:34:25.801Z,14.00
2023-05-02T11:36:53.632Z,13.60
2023-05-02T11:39:22.309Z,13.30
2023-05-02T11:41:50.533Z,13.00
2023-05-02T11:44:18.461Z,12.80
2023-05-02T11:46:46.411Z,12.70
2023-05-02T11:49:15.116Z,12.80
2023-05-02T11:54:31.645Z,12.80
2023-05-02T11:57:02.389Z,12.80
2023-05-02T11:59:30.233Z,12.70
2023-05-02T12:01:58.019Z,12.30
2023-05-02T12:04:26.358Z,12.70
2023-05-02T12:06:57.459Z,12.70
2023-05-02T12:09:25.390Z,12.70
2023-05-02T12:11:54.206Z,12.60
2023-05-02T12:17:16.997Z,12.90
2023-05-02T12:19:45.329Z,12.90
2023-05-02T12:22:13.802Z,12.80
2023-05-02T12:24:42.823Z,12.80
2023-05-02T12:27:12.601Z,12.70
2023-05-02T12:29:41.588Z,12.70
2023-05-02T12:32:09.364Z,12.80
2023-05-02T12:34:38.286Z,12.80
2023-05-02T12:37:07.369Z,12.90
2023-05-02T12:39:39.656Z,12.90
2023-05-02T12:44:57.507Z,12.70
2023-05-02T12:50:14.337Z,12.80
2023-05-02T12:52:50.144Z,12.90
2023-05-02T12:55:18.487Z,13.00
2023-05-02T12:57:46.408Z,13.10
2023-05-02T13:00:17.480Z,13.30
2023-05-02T13:05:32.828Z,13.30
2023-05-02T13:08:00.684Z,12.90
2023-05-02T13:10:28.542Z,13.20
2023-05-02T13:12:56.713Z,13.10
2023-05-02T13:15:24.514Z,13.30
2023-05-02T13:17:52.557Z,13.10
2023-05-02T13:20:20.790Z,13.10
2023-05-02T13:22:48.602Z,13.30
2023-05-02T13:25:16.413Z,13.20
2023-05-02T13:27:45.380Z,13.60
2023-05-02T13:30:13.827Z,13.70
2023-05-02T13:32:41.782Z,13.90
2023-05-02T13:35:13.233Z,13.60
2023-05-02T13:37:41.225Z,13.70
2023-05-02T13:40:11.368Z,13.70
2023-05-02T13:42:39.238Z,13.70
2023-05-02T13:47:55.441Z,13.70
2023-05-02T13:50:23.469Z,13.80
2023-05-02T13:52:51.320Z,14.80
2023-05-02T13:55:19.587Z,13.80
2023-05-02T13:57:47.324Z,13.70
2023-05-02T14:00:17.140Z,13.80
2023-05-02T14:02:47.780Z,13.70
2023-05-02T14:05:17.818Z,13.70
2023-05-02T14:07:46.285Z,13.70
2023-05-02T14:10:14.503Z,13.50
2023-05-02T14:12:42.296Z,13.40
2023-05-02T14:17:57.697Z,13.60
2023-05-02T14:20:25.656Z,13.80
2023-05-02T14:22:53.710Z,13.40
2023-05-02T14:25:21.536Z,13.60
2023-05-02T14:27:49.389Z,13.70
2023-05-02T14:30:18.114Z,13.70
2023-05-02T14:32:46.998Z,13.60
2023-05-02T14:38:05.029Z,13.70
2023-05-02T14:43:22.103Z,14.00
2023-05-02T14:45:50.085Z,13.90
2023-05-02T14:51:07.511Z,13.80
2023-05-02T14:53:35.718Z,13.80
2023-05-02T14:56:04.029Z,13.80
2023-05-02T14:58:32.259Z,14.00
2023-05-02T15:01:00.281Z,14.00
2023-05-02T15:03:28.827Z,14.20
2023-05-02T15:08:47.495Z,14.30
2023-05-02T15:11:15.726Z,14.40
2023-05-02T15:16:32.147Z,14.50
2023-05-02T15:19:00.151Z,14.70
2023-05-02T15:21:28.428Z,14.70
2023-05-02T15:26:46.310Z,14.40
2023-05-02T15:29:14.195Z,14.50
2023-05-02T15:31:42.202Z,14.40
2023-05-02T15:34:10.319Z,14.50
2023-05-02T15:36:38.272Z,14.60
2023-05-02T15:39:06.241Z,14.60
2023-05-02T15:41:34.248Z,14.60
2023-05-02T15:44:02.133Z,14.50
2023-05-02T15:46:30.133Z,14.40
2023-05-02T15:48:58.267Z,14.30
2023-05-02T15:51:26.434Z,14.20
2023-05-02T15:53:54.701Z,14.10
2023-05-02T15:56:22.502Z,13.90
2023-05-02T15:58:50.494Z,13.90
2023-05-02T16:01:20.358Z,13.90
2023-05-02T16:03:48.835Z,13.70
2023-05-02T16:06:16.798Z,13.60
2023-05-02T16:08:44.645Z,13.70
2023-05-02T16:11:12.911Z,13.90
2023-05-02T16:13:40.769Z,13.70
2023-05-02T16:16:08.818Z,13.70
2023-05-02T16:18:36.868Z,13.60
2023-05-02T16:21:05.379Z,13.60
2023-05-02T16:23:33.323Z,13.40
2023-05-02T16:26:01.496Z,13.50
2023-05-02T16:28:30.141Z,13.30
2023-05-02T16:30:58.075Z,13.30
2023-05-02T16:33:26.000Z,13.30
2023-05-02T16:36:01.748Z,13.20
2023-05-02T16:38:29.692Z,13.20
2023-05-02T16:40:57.696Z,13.20
2023-05-02T16:43:26.021Z,13.20
2023-05-02T16:46:01.103Z,13.20
2023-05-02T16:48:29.481Z,13.30
2023-05-02T16:50:57.301Z,13.40
2023-05-02T16:53:26.150Z,13.60
2023-05-02T16:55:54.049Z,14.20
2023-05-02T16:58:22.315Z,13.80
2023-05-02T17:00:50.096Z,13.70
2023-05-02T17:03:18.005Z,13.60
2023-05-02T17:05:46.025Z,13.30
2023-05-02T17:08:14.445Z,13.30
2023-05-02T17:10:42.350Z,13.20
2023-05-02T17:13:10.579Z,13.20
2023-05-02T17:15:38.666Z,13.40
2023-05-02T17:18:06.785Z,13.10
2023-05-02T17:20:35.487Z,13.20
2023-05-02T17:23:03.426Z,13.10
2023-05-02T17:25:31.792Z,13.10
2023-05-02T17:30:46.147Z,13.00
2023-05-02T17:33:14.229Z,13.40
2023-05-02T17:35:42.204Z,14.00
2023-05-02T17:38:10.706Z,14.70
2023-05-02T17:40:38.501Z,16.00
2023-05-02T17:43:06.737Z,17.00
2023-05-02T17:45:35.735Z,17.70
2023-05-02T17:48:04.161Z,17.90
2023-05-02T17:50:35.963Z,17.00
2023-05-02T17:53:04.643Z,16.30
2023-05-02T17:55:37.040Z,15.80
2023-05-02T17:58:05.409Z,15.20
2023-05-02T18:00:33.275Z,14.80
2023-05-02T18:03:01.979Z,14.40
2023-05-02T18:05:38.590Z,14.10
2023-05-02T18:08:07.158Z,13.80
2023-05-02T18:10:37.911Z,13.60
2023-05-02T18:13:06.182Z,13.40
2023-05-02T18:15:34.049Z,13.40
2023-05-02T18:18:02.247Z,13.20
2023-05-02T18:20:30.277Z,13.10
2023-05-02T18:22:59.958Z,12.90
2023-05-02T18:25:28.236Z,13.00
2023-05-02T18:27:56.404Z,13.90
2023-05-02T18:30:24.511Z,14.10
2023-05-02T18:32:52.515Z,14.50
2023-05-02T18:35:20.974Z,14.70
2023-05-02T18:37:48.914Z,14.70
2023-05-02T18:43:04.373Z,13.70
2023-05-02T18:45:32.717Z,13.40
2023-05-02T18:48:00.851Z,13.00
2023-05-02T18:50:28.947Z,13.00
2023-05-02T18:52:56.837Z,12.80
2023-05-02T18:55:25.562Z,12.70
2023-05-02T18:57:53.594Z,12.60
2023-05-02T19:00:22.755Z,12.40
2023-05-02T19:02:53.206Z,12.30
2023-05-02T19:05:21.697Z,12.30
2023-05-02T19:07:49.568Z,12.30
2023-05-02T19:10:17.517Z,12.40
2023-05-02T19:12:47.190Z,12.30
2023-05-02T19:18:04.861Z,12.20
2023-05-02T19:20:32.956Z,12.10
2023-05-02T19:23:18.423Z,12.10
2023-05-02T19:25:47.759Z,12.10
2023-05-02T19:28:16.866Z,12.10
2023-05-02T19:30:45.438Z,12.10
2023-05-02T19:33:13.808Z,12.10
2023-05-02T19:38:28.931Z,12.10
2023-05-02T19:40:56.918Z,12.70
2023-05-02T19:43:24.930Z,12.10
2023-05-02T19:45:53.315Z,12.10
2023-05-02T19:48:22.321Z,12.10
2023-05-02T19:50:50.358Z,12.00
2023-05-02T19:53:18.463Z,11.90
2023-05-02T19:55:46.598Z,12.00
2023-05-02T19:58:14.777Z,12.00
2023-05-02T20:00:43.188Z,12.00
2023-05-02T20:03:11.413Z,12.00
2023-05-02T20:05:40.988Z,12.00
2023-05-02T20:08:08.993Z,12.00
2023-05-02T20:10:37.434Z,12.00
2023-05-02T20:13:05.456Z,12.00
2023-05-02T20:15:33.400Z,11.90
2023-05-02T20:18:02.562Z,11.90
2023-05-02T20:20:31.229Z,11.90
2023-05-02T20:22:59.320Z,11.80
2023-05-02T20:25:27.987Z,11.90
2023-05-02T20:27:55.952Z,11.80
2023-05-02T20:30:24.059Z,11.70
2023-05-02T20:32:52.635Z,11.80
2023-05-02T20:35:20.974Z,11.80
2023-05-02T20:37:49.183Z,11.70
2023-05-02T20:40:20.597Z,11.80
2023-05-02T20:45:18.209Z,11.70
2023-05-02T20:47:46.967Z,11.70
2023-05-02T20:50:16.444Z,11.70
2023-05-02T20:52:44.624Z,11.80
2023-05-02T20:57:59.136Z,11.50
2023-05-02T21:00:28.224Z,11.40
2023-05-02T21:02:56.304Z,11.40
2023-05-02T21:05:24.437Z,11.60
2023-05-02T21:07:52.382Z,11.30
2023-05-02T21:10:21.838Z,11.20
2023-05-02T21:12:49.765Z,11.30
2023-05-02T21:15:17.987Z,11.20
2023-05-02T21:17:45.941Z,11.10
2023-05-02T21:20:14.632Z,11.50
2023-05-02T21:22:42.487Z,11.20
2023-05-02T21:25:11.821Z,11.20
2023-05-02T21:27:39.887Z,11.40
2023-05-02T21:32:55.600Z,11.10
2023-05-02T21:35:23.635Z,10.80
2023-05-02T21:37:51.692Z,10.90
2023-05-02T21:43:06.150Z,10.90
2023-05-02T21:45:34.180Z,10.90
2023-05-02T21:48:02.207Z,10.70
2023-05-02T21:50:30.163Z,10.90
2023-05-02T21:55:45.396Z,10.40
2023-05-02T22:00:58.164Z,10.70
2023-05-02T22:03:26.626Z,10.60
2023-05-02T22:08:23.524Z,10.40
2023-05-02T22:10:52.330Z,10.30
2023-05-02T22:13:21.347Z,10.30
2023-05-02T22:18:36.358Z,10.20
2023-05-02T22:21:07.585Z,10.10
2023-05-02T22:23:36.425Z,10.10
2023-05-02T22:26:05.087Z,10.00
2023-05-02T22:28:33.733Z,9.90
2023-05-02T22:31:02.591Z,9.90
2023-05-02T22:33:30.413Z,10.00
2023-05-02T22:35:58.258Z,9.80
2023-05-02T22:38:26.116Z,9.80
2023-05-02T22:40:53.934Z,9.80
2023-05-02T22:43:21.710Z,9.90
2023-05-02T22:45:50.605Z,9.80
2023-05-02T22:48:18.725Z,9.80
2023-05-02T22:50:47.897Z,9.70
2023-05-02T22:53:15.892Z,9.60
2023-05-02T22:55:43.872Z,9.70
2023-05-02T22:58:11.866Z,9.60
2023-05-02T23:00:39.788Z,9.70
2023-05-02T23:03:07.774Z,9.60
2023-05-02T23:05:35.625Z,9.60
2023-05-02T23:10:51.588Z,9.60
2023-05-02T23:13:20.058Z,9.40
2023-05-02T23:18:40.880Z,9.50
2023-05-02T23:21:14.821Z,9.30
2023-05-02T23:23:43.000Z,9.30
2023-05-02T23:26:11.465Z,9.30
2023-05-02T23:28:39.967Z,9.20
2023-05-02T23:31:08.665Z,9.30
2023-05-02T23:33:37.152Z,9.30
2023-05-02T23:36:07.090Z,9.00
2023-05-02T23:38:36.897Z,9.30
2023-05-02T23:41:05.094Z,8.50
2023-05-02T23:43:32.943Z,9.00
2023-05-02T23:46:01.396Z,9.00
2023-05-02T23:48:29.174Z,8.90
2023-05-02T23:50:57.476Z,9.10
2023-05-02T23:53:25.844Z,8.80
2023-05-02T23:55:53.708Z,8.80
2023-05-02T23:58:21.436Z,8.90
